Flight Track Log - Related Links

Times and Time Zones

All times are in EDT time to prevent confusion due to time zone crossing. See the DAL3606 flight status page for this flight to view local times or setup timezone preferences in your user account.

Time Position Orientation Groundspeed Altitude Reporting Facility
EDT Latitude Longitude Course Direction KTS MPH feet Rate Location/Type
Mon 10:00:16 AM 38.9333 -77.5333 234° Southwest 181 208 2,500  Level Potomac TRACON
Mon 10:01:16 AM 38.8833 -77.5667 207° Southwest 220 253 4,300 2,381 Climbing Potomac TRACON
Mon 10:02:00 AM 38.6731 -77.6218 201° Southwest  Level FlightAware Approximate
Mon 10:03:00 AM 38.5796 -77.6615 197° South  Level FlightAware Approximate
Mon 10:03:30 AM 38.7314 -77.6381 200° South 262 302 10,200  Level Washington Center
Mon 10:04:00 AM 38.5000 -77.7265 270° West  Level FlightAware Approximate
Mon 10:04:30 AM 38.6514 -77.6731 199° South 287 330 11,300  Level Washington Center
Mon 10:05:00 AM 38.4421 -77.8264 234° Southwest  Level FlightAware Approximate
Mon 10:05:30 AM 38.5569 -77.7103 197° South 327 376 13,400  Level Washington Center
Mon 10:06:30 AM 38.4764 -77.7875 217° Southwest 348 400 15,000 800 Climbing Washington Center
Mon 10:07:30 AM 38.4203 -77.8947 236° Southwest 348 400 15,000  Level Washington Center
Mon 10:08:30 AM 38.3639 -78.0067 237° Southwest 369 425 15,000 1,050 Level Washington Center
Mon 10:09:30 AM 38.3072 -78.1133 236° Southwest 374 430 17,100 1,600 Climbing Washington Center
Mon 10:10:30 AM 38.2339 -78.2300 231° Southwest 380 437 18,200 1,400 Climbing Washington Center
Mon 10:11:30 AM 38.1611 -78.3117 221° Southwest 385 443 19,900 1,400 Climbing Washington Center
Mon 10:12:30 AM 38.0797 -78.4064 223° Southwest 391 450 21,000 1,350 Climbing Washington Center
Mon 10:13:30 AM 37.9919 -78.5058 222° Southwest 396 456 22,600 1,450 Climbing Washington Center
Mon 10:14:30 AM 37.9183 -78.6111 228° Southwest 396 456 23,900 1,200 Climbing Washington Center
Mon 10:15:30 AM 37.8569 -78.7347 238° Southwest 401 461 25,000 1,050 Climbing Washington Center
Mon 10:16:30 AM 37.7953 -78.8531 237° Southwest 413 475 26,000 500 Climbing Washington Center
Mon 10:17:30 AM 37.7358 -78.9661 236° Southwest 423 487 26,000 450 Level Washington Center
Mon 10:18:30 AM 37.6717 -79.0892 237° Southwest 423 487 26,900 1,600 Climbing Washington Center
Mon 10:19:30 AM 37.6033 -79.2144 235° Southwest 418 481 29,200 1,600 Climbing Washington Center
Mon 10:20:30 AM 37.5522 -79.3194 238° Southwest 406 467 30,100 1,000 Climbing Washington Center
Mon 10:21:30 AM 37.4836 -79.4469 236° Southwest 406 467 31,200 950 Climbing Washington Center
Mon 10:22:30 AM 37.4258 -79.5539 236° Southwest 406 467 32,000 400 Climbing Washington Center
Mon 10:23:30 AM 37.3614 -79.6733 236° Southwest 413 475 32,000  Level Washington Center
Mon 10:24:30 AM 37.2986 -79.7953 237° Southwest 413 475 32,000  Level Washington Center
Mon 10:25:30 AM 37.2272 -79.9244 235° Southwest 418 481 32,000  Level Washington Center
Mon 10:27:41 AM 37.0861 -80.1831 236° Southwest 433 498 32,000  Level Atlanta Center
Mon 10:28:41 AM 37.0211 -80.3058 236° Southwest 433 498 32,000  Level Atlanta Center
Mon 10:29:41 AM 36.9433 -80.4158 229° Southwest 433 498 32,000  Level Atlanta Center
Mon 10:30:41 AM 36.8689 -80.5100 225° Southwest 433 498 32,000  Level Atlanta Center
Mon 10:31:41 AM 36.7886 -80.6200 228° Southwest 428 493 32,000  Level Atlanta Center
Mon 10:32:41 AM 36.7100 -80.7242 227° Southwest 425 489 32,000  Level Atlanta Center
Mon 10:33:41 AM 36.6294 -80.8311 227° Southwest 425 489 32,000  Level Atlanta Center
Mon 10:34:41 AM 36.5469 -80.9403 227° Southwest 431 496 32,000  Level Atlanta Center
Mon 10:35:41 AM 36.4661 -81.0494 227° Southwest 431 496 32,000  Level Atlanta Center
Mon 10:36:41 AM 36.3853 -81.1556 227° Southwest 431 496 32,000  Level Atlanta Center
Mon 10:37:41 AM 36.3044 -81.2667 228° Southwest 431 496 32,000  Level Atlanta Center
Mon 10:38:41 AM 36.2211 -81.3725 226° Southwest 431 496 32,000  Level Atlanta Center
Mon 10:39:41 AM 36.1400 -81.4781 226° Southwest 431 496 32,000  Level Atlanta Center
Mon 10:40:41 AM 36.0506 -81.5939 226° Southwest 425 489 32,000  Level Atlanta Center
Mon 10:41:41 AM 35.9733 -81.6961 227° Southwest 432 497 32,000  Level Atlanta Center
Mon 10:42:41 AM 35.8836 -81.8089 226° Southwest 439 505 32,000  Level Atlanta Center
Mon 10:43:41 AM 35.8042 -81.9136 227° Southwest 433 498 32,000  Level Atlanta Center
Mon 10:44:41 AM 35.7183 -82.0206 225° Southwest 426 490 32,000  Level Atlanta Center
Mon 10:45:41 AM 35.6325 -82.1275 225° Southwest 431 496 32,000  Level Atlanta Center
Mon 10:46:41 AM 35.5464 -82.2264 223° Southwest 431 496 32,000  Level Atlanta Center
Mon 10:47:41 AM 35.4561 -82.3281 223° Southwest 436 502 32,000  Level Atlanta Center
Mon 10:48:41 AM 35.3675 -82.4267 222° Southwest 436 502 32,000  Level Atlanta Center
Mon 10:49:41 AM 35.2772 -82.5328 224° Southwest 436 502 32,000 -650 Level Atlanta Center
Mon 10:50:41 AM 35.1906 -82.6258 221° Southwest 436 502 30,700 -1,350 Descending Atlanta Center
Mon 10:51:41 AM 35.1019 -82.7289 224° Southwest 436 502 29,300 -1,400 Descending Atlanta Center
Mon 10:52:41 AM 35.0175 -82.8214 222° Southwest 436 502 27,900 -1,400 Descending Atlanta Center
Mon 10:53:41 AM 34.9308 -82.9164 222° Southwest 431 496 26,500 -1,350 Descending Atlanta Center
Mon 10:54:41 AM 34.8564 -83.0008 223° Southwest 423 487 25,200 -1,250 Descending Atlanta Center
Mon 10:55:41 AM 34.7653 -83.0981 221° Southwest 423 487 24,000 -600 Descending Atlanta Center
Mon 10:56:41 AM 34.6783 -83.1953 223° Southwest 428 493 24,000  Level Atlanta Center
Mon 10:57:41 AM 34.5831 -83.3019 223° Southwest 435 501 24,000 -600 Level Atlanta Center
Mon 10:58:41 AM 34.4939 -83.3961 221° Southwest 435 501 22,800 -1,550 Descending Atlanta Center
Mon 10:59:41 AM 34.4108 -83.4925 224° Southwest 430 495 20,900 -1,850 Descending Atlanta Center
Mon 11:00:41 AM 34.3278 -83.5836 222° Southwest 417 480 19,100 -1,600 Descending Atlanta Center
Mon 11:01:41 AM 34.2467 -83.6719 222° Southwest 417 480 17,700 -1,600 Descending Atlanta Center
Mon 11:02:41 AM 34.1633 -83.7628 222° Southwest 403 464 15,900 -1,800 Descending Atlanta Center
Mon 11:03:41 AM 34.0864 -83.8431 221° Southwest 387 445 14,100 -1,450 Descending Atlanta Center
Mon 11:04:41 AM 34.0072 -83.9286 222° Southwest 387 445 13,000 -1,000 Descending Atlanta Center
Mon 11:05:41 AM 33.9361 -84.0061 222° Southwest 387 445 12,100 -450 Descending Atlanta Center
Mon 11:06:41 AM 33.8589 -84.0864 221° Southwest 378 435 12,100 -50 Level Atlanta Center
Mon 11:07:41 AM 33.7733 -84.1514 212° Southwest 378 435 12,000 -50 Descending Atlanta Center
Mon 11:08:41 AM 33.7314 -84.2286 237° Southwest 301 346 12,000 -50 Level Atlanta Center
Mon 11:09:41 AM 33.7314 -84.3061 270° West 255 293 11,900 -960 Descending Atlanta Center
Mon 11:10:46 AM 33.7333 -84.4000 271° West 234 269 10,000 -1,872 Descending Atlanta TRACON
Mon 11:11:46 AM 33.7333 -84.4667 270° West 240 276 8,000 -1,850 Descending Atlanta TRACON
Mon 11:12:46 AM 33.7333 -84.5500 270° West 223 257 6,300 -2,000 Descending Atlanta TRACON
Mon 11:13:40 AM 33.7333 -84.6167 270° West 232 267 4,200 -1,158 Descending Atlanta TRACON
Mon 11:14:40 AM 33.6833 -84.6500 209° Southwest 191 220 4,100 -105 Descending Atlanta TRACON
Mon 11:15:34 AM 33.6667 -84.6167 121° Southeast 162 186 4,000 -474 Descending Atlanta TRACON
Mon 11:16:34 AM 33.6500 -84.5667 112° Southeast 167 192 3,200 -800 Descending Atlanta TRACON

Login

Don't have an account? Register now (free) for customized features, flight alerts, and more!